createdAt,value
2022-10-29T00:00:17.047Z,10.70
2022-10-29T00:02:44.118Z,8.02
2022-10-29T00:05:11.177Z,7.03
2022-10-29T00:07:38.293Z,7.30
2022-10-29T00:10:05.999Z,10.68
2022-10-29T00:12:33.229Z,6.95
2022-10-29T00:15:00.292Z,8.00
2022-10-29T00:17:27.357Z,6.70
2022-10-29T00:19:54.378Z,7.47
2022-10-29T00:22:21.584Z,6.60
2022-10-29T00:24:48.608Z,7.15
2022-10-29T00:27:15.678Z,7.75
2022-10-29T00:29:42.708Z,7.38
2022-10-29T00:32:10.066Z,7.18
2022-10-29T00:34:37.609Z,7.10
2022-10-29T00:37:05.370Z,6.78
2022-10-29T00:39:35.549Z,7.03
2022-10-29T00:42:02.544Z,7.72
2022-10-29T00:44:32.663Z,6.97
2022-10-29T00:47:28.305Z,6.97
2022-10-29T00:50:23.093Z,7.43
2022-10-29T00:52:52.076Z,8.32
2022-10-29T00:55:20.193Z,7.35
2022-10-29T00:57:52.442Z,7.28
2022-10-29T01:00:20.942Z,6.07
2022-10-29T01:02:48.331Z,7.88
2022-10-29T01:05:19.425Z,5.60
2022-10-29T01:07:47.234Z,6.95
2022-10-29T01:10:16.318Z,6.65
2022-10-29T01:12:52.067Z,6.13
2022-10-29T01:15:40.236Z,7.13
2022-10-29T01:18:20.266Z,5.90
2022-10-29T01:21:06.183Z,5.95
2022-10-29T01:24:08.573Z,7.10
2022-10-29T01:26:38.204Z,6.03
2022-10-29T01:29:23.789Z,8.10
2022-10-29T01:32:26.556Z,5.80
2022-10-29T01:34:56.626Z,5.30
2022-10-29T01:37:32.154Z,7.32
2022-10-29T01:40:11.694Z,6.38
2022-10-29T01:43:07.274Z,6.07
2022-10-29T01:45:42.094Z,5.85
2022-10-29T01:48:13.737Z,7.03
2022-10-29T01:50:45.451Z,6.95
2022-10-29T01:53:12.880Z,6.63
2022-10-29T01:55:39.953Z,6.80
2022-10-29T01:58:07.773Z,5.63
2022-10-29T02:00:51.109Z,7.35
2022-10-29T02:03:48.176Z,6.28
2022-10-29T02:06:47.200Z,6.93
2022-10-29T02:09:27.077Z,6.30
2022-10-29T02:12:17.658Z,5.50
2022-10-29T02:14:56.939Z,6.05
2022-10-29T02:17:24.873Z,5.78
2022-10-29T02:19:51.878Z,4.75
2022-10-29T02:22:18.850Z,5.60
2022-10-29T02:24:45.850Z,6.10
2022-10-29T02:27:12.874Z,6.78
2022-10-29T02:29:39.931Z,5.70
2022-10-29T02:32:06.893Z,5.78
2022-10-29T02:34:34.243Z,5.30
2022-10-29T02:37:01.320Z,5.50
2022-10-29T02:39:28.350Z,6.43
2022-10-29T02:41:55.404Z,7.43
2022-10-29T02:44:22.398Z,6.63
2022-10-29T02:46:49.432Z,6.07
2022-10-29T02:49:16.473Z,6.10
2022-10-29T02:51:43.520Z,5.22
2022-10-29T02:54:10.558Z,5.63
2022-10-29T02:56:37.568Z,6.65
2022-10-29T02:59:06.508Z,5.38
2022-10-29T03:01:36.294Z,5.25
2022-10-29T03:04:03.407Z,4.82
2022-10-29T03:06:30.392Z,6.88
2022-10-29T03:08:57.621Z,5.75
2022-10-29T03:11:24.612Z,6.18
2022-10-29T03:13:51.593Z,5.28
2022-10-29T03:16:18.594Z,4.43
2022-10-29T03:18:45.628Z,7.30
2022-10-29T03:21:12.681Z,5.40
2022-10-29T03:23:39.654Z,7.38
2022-10-29T03:26:06.797Z,6.38
2022-10-29T03:28:33.842Z,6.35
2022-10-29T03:31:00.867Z,5.40
2022-10-29T03:33:28.342Z,5.28
2022-10-29T03:35:57.620Z,4.97
2022-10-29T03:38:24.828Z,5.60
2022-10-29T03:40:52.043Z,4.60
2022-10-29T03:43:19.171Z,5.18
2022-10-29T03:45:57.578Z,5.50
2022-10-29T03:48:25.632Z,4.97
2022-10-29T03:50:57.750Z,5.93
2022-10-29T03:53:25.799Z,4.90
2022-10-29T03:55:54.439Z,5.15
2022-10-29T03:58:22.277Z,4.50
2022-10-29T04:00:56.440Z,5.47
2022-10-29T04:03:23.564Z,5.05
2022-10-29T04:05:50.677Z,5.95
2022-10-29T04:08:17.913Z,5.00
2022-10-29T04:10:50.750Z,5.95
2022-10-29T04:13:18.713Z,4.95
2022-10-29T04:15:45.986Z,5.85
2022-10-29T04:18:13.420Z,7.90
2022-10-29T04:21:08.741Z,5.35
2022-10-29T04:29:03.632Z,5.70
2022-10-29T04:31:30.785Z,5.07
2022-10-29T04:33:57.767Z,5.03
2022-10-29T04:36:24.765Z,6.25
2022-10-29T04:38:51.756Z,7.07
2022-10-29T04:41:18.814Z,5.18
2022-10-29T04:43:46.104Z,5.57
2022-10-29T04:46:13.155Z,5.18
2022-10-29T04:48:40.200Z,5.78
2022-10-29T04:51:07.178Z,8.52
2022-10-29T04:53:34.334Z,5.40
2022-10-29T04:56:03.415Z,5.40
2022-10-29T04:58:30.398Z,9.82
2022-10-29T05:01:02.505Z,8.75
2022-10-29T05:03:29.831Z,8.77
2022-10-29T05:05:57.086Z,7.18
2022-10-29T05:08:24.067Z,9.57
2022-10-29T05:10:51.086Z,14.80
2022-10-29T05:13:18.122Z,18.75
2022-10-29T05:15:53.213Z,20.30
2022-10-29T05:18:20.863Z,15.27
2022-10-29T05:20:47.988Z,11.50
2022-10-29T05:23:15.463Z,8.60
2022-10-29T05:25:42.436Z,27.92
2022-10-29T05:28:14.508Z,28.77
2022-10-29T05:30:41.794Z,16.58
2022-10-29T05:33:09.813Z,12.27
2022-10-29T05:35:37.037Z,11.15
2022-10-29T05:38:06.288Z,8.15
2022-10-29T05:40:33.370Z,8.13
2022-10-29T05:43:00.892Z,7.90
2022-10-29T05:45:28.259Z,10.18
2022-10-29T05:48:00.318Z,7.88
2022-10-29T05:50:28.106Z,11.40
2022-10-29T05:53:00.013Z,10.60
2022-10-29T05:55:28.451Z,9.90
2022-10-29T05:57:59.892Z,8.50
2022-10-29T06:00:29.349Z,7.95
2022-10-29T06:02:56.939Z,8.52
2022-10-29T06:05:24.259Z,8.65
2022-10-29T06:08:00.220Z,8.98
2022-10-29T06:10:29.182Z,7.40
2022-10-29T06:12:56.229Z,7.47
2022-10-29T06:15:23.510Z,7.43
2022-10-29T06:17:50.626Z,6.55
2022-10-29T06:20:20.875Z,6.40
2022-10-29T06:22:55.566Z,8.02
2022-10-29T06:25:22.800Z,7.22
2022-10-29T06:28:00.777Z,6.95
2022-10-29T06:30:29.149Z,8.63
2022-10-29T06:32:56.613Z,7.55
2022-10-29T06:35:23.956Z,6.95
2022-10-29T06:37:51.339Z,7.07
2022-10-29T06:40:18.504Z,7.70
2022-10-29T06:42:45.544Z,7.28
2022-10-29T06:45:12.735Z,9.88
2022-10-29T06:47:44.699Z,8.82
2022-10-29T06:50:13.307Z,9.30
2022-10-29T06:52:40.302Z,9.73
2022-10-29T06:55:08.436Z,8.55
2022-10-29T06:57:35.613Z,8.25
2022-10-29T07:00:07.336Z,8.00
2022-10-29T07:02:35.645Z,8.88
2022-10-29T07:05:02.668Z,8.63
2022-10-29T07:07:29.861Z,9.40
2022-10-29T07:09:58.131Z,10.07
2022-10-29T07:12:25.105Z,9.35
2022-10-29T07:14:52.087Z,9.25
2022-10-29T07:17:19.054Z,8.40
2022-10-29T07:19:46.084Z,9.95
2022-10-29T07:22:13.053Z,11.15
2022-10-29T07:24:40.181Z,8.55
2022-10-29T07:27:07.288Z,10.70
2022-10-29T07:29:35.157Z,8.85
2022-10-29T07:32:02.152Z,10.20
2022-10-29T07:34:29.326Z,7.35
2022-10-29T07:36:56.571Z,6.00
2022-10-29T07:39:23.792Z,6.65
2022-10-29T07:41:51.478Z,8.95
2022-10-29T07:44:20.064Z,8.82
2022-10-29T07:46:47.037Z,10.30
2022-10-29T07:49:14.007Z,10.18
2022-10-29T07:51:42.191Z,8.68
2022-10-29T07:54:14.436Z,9.82
2022-10-29T07:59:15.608Z,8.85
2022-10-29T08:01:42.766Z,10.45
2022-10-29T08:04:10.116Z,9.10
2022-10-29T08:06:37.249Z,9.80
2022-10-29T08:09:04.406Z,8.77
2022-10-29T08:11:32.718Z,10.18
2022-10-29T08:13:59.969Z,9.55
2022-10-29T08:16:26.944Z,8.98
2022-10-29T08:18:53.913Z,8.63
2022-10-29T08:21:21.162Z,8.35
2022-10-29T08:23:48.188Z,9.15
2022-10-29T08:26:15.280Z,8.77
2022-10-29T08:28:42.903Z,9.05
2022-10-29T08:31:10.011Z,8.50
2022-10-29T08:33:36.993Z,8.85
2022-10-29T08:36:04.244Z,8.65
2022-10-29T08:38:31.220Z,8.65
2022-10-29T08:41:40.583Z,8.70
2022-10-29T08:44:43.519Z,8.80
2022-10-29T08:47:16.772Z,9.23
2022-10-29T08:50:01.228Z,8.93
2022-10-29T08:52:30.548Z,9.60
2022-10-29T08:55:12.727Z,8.38
2022-10-29T08:57:47.223Z,10.43
2022-10-29T09:00:18.276Z,9.98
2022-10-29T09:02:45.660Z,8.82
2022-10-29T09:05:19.251Z,8.85
2022-10-29T09:08:19.782Z,8.35
2022-10-29T09:10:55.613Z,7.82
2022-10-29T09:13:40.469Z,8.80
2022-10-29T09:16:17.454Z,8.02
2022-10-29T09:19:05.998Z,7.30
2022-10-29T09:21:54.403Z,8.35
2022-10-29T09:24:43.159Z,6.50
2022-10-29T09:27:47.354Z,6.20
2022-10-29T09:30:17.986Z,6.00
2022-10-29T09:32:56.619Z,7.32
2022-10-29T09:35:38.025Z,7.45
2022-10-29T09:38:18.788Z,7.25
2022-10-29T09:40:46.495Z,6.40
2022-10-29T09:43:18.636Z,7.07
2022-10-29T09:45:52.180Z,9.00
2022-10-29T09:48:29.137Z,7.13
2022-10-29T09:51:26.886Z,7.22
2022-10-29T09:53:55.208Z,7.38
2022-10-29T09:56:22.515Z,8.02
2022-10-29T09:58:56.012Z,7.80
2022-10-29T10:01:23.218Z,9.15
2022-10-29T10:03:58.317Z,8.90
2022-10-29T10:06:25.427Z,7.75
2022-10-29T10:09:04.880Z,7.57
2022-10-29T10:11:41.997Z,6.93
2022-10-29T10:14:19.349Z,7.28
2022-10-29T10:16:46.528Z,7.95
2022-10-29T10:19:23.815Z,7.53
2022-10-29T10:22:05.183Z,8.18
2022-10-29T10:24:36.814Z,6.38
2022-10-29T10:27:19.413Z,7.22
2022-10-29T10:30:04.401Z,7.80
2022-10-29T10:32:32.066Z,7.43
2022-10-29T10:34:59.073Z,6.53
2022-10-29T10:37:31.476Z,6.35
2022-10-29T10:40:04.496Z,7.15
2022-10-29T10:42:37.207Z,6.95
2022-10-29T10:45:17.731Z,7.85
2022-10-29T10:47:50.727Z,7.15
2022-10-29T10:50:32.178Z,6.40
2022-10-29T10:53:03.392Z,8.25
2022-10-29T10:55:32.852Z,7.88
2022-10-29T10:58:19.364Z,7.10
2022-10-29T11:01:06.198Z,7.15
2022-10-29T11:03:45.131Z,7.50
2022-10-29T11:06:20.581Z,6.82
2022-10-29T11:09:38.824Z,6.03
2022-10-29T11:12:27.934Z,5.00
2022-10-29T11:15:03.369Z,4.40
2022-10-29T11:17:39.339Z,5.75
2022-10-29T11:20:16.045Z,5.07
2022-10-29T11:23:04.284Z,4.55
2022-10-29T11:25:43.019Z,5.45
2022-10-29T11:28:29.283Z,6.93
2022-10-29T11:31:05.071Z,3.92
2022-10-29T11:33:48.117Z,4.38
2022-10-29T11:36:21.572Z,3.83
2022-10-29T11:39:03.907Z,5.20
2022-10-29T11:41:44.037Z,4.35
2022-10-29T11:44:13.367Z,6.70
2022-10-29T11:47:25.298Z,4.13
2022-10-29T11:50:25.826Z,3.38
2022-10-29T11:53:23.850Z,4.63
2022-10-29T11:56:12.014Z,3.03
2022-10-29T11:58:47.705Z,4.10
2022-10-29T12:01:41.088Z,3.55
2022-10-29T12:04:31.742Z,4.97
2022-10-29T12:07:21.222Z,4.50
2022-10-29T12:10:11.741Z,4.07
2022-10-29T12:12:56.203Z,5.32
2022-10-29T12:15:35.191Z,2.80
2022-10-29T12:18:15.685Z,3.40
2022-10-29T12:21:01.318Z,3.25
2022-10-29T12:23:43.537Z,3.00
2022-10-29T12:26:29.189Z,3.50
2022-10-29T12:29:06.095Z,4.13
2022-10-29T12:31:37.549Z,3.50
2022-10-29T12:34:46.509Z,3.70
2022-10-29T12:37:22.704Z,4.43
2022-10-29T12:40:20.583Z,2.92
2022-10-29T12:42:49.396Z,3.17
2022-10-29T12:45:59.528Z,3.30
2022-10-29T12:48:37.250Z,3.58
2022-10-29T12:51:22.583Z,3.75
2022-10-29T12:54:13.820Z,3.88
2022-10-29T12:56:44.987Z,4.82
2022-10-29T12:59:41.697Z,3.67
2022-10-29T13:02:17.948Z,3.55
2022-10-29T13:05:06.964Z,3.60
2022-10-29T13:07:34.327Z,3.85
2022-10-29T13:10:23.532Z,4.13
2022-10-29T13:12:59.550Z,4.35
2022-10-29T13:15:35.169Z,3.75
2022-10-29T13:18:12.306Z,3.78
2022-10-29T13:20:41.826Z,3.67
2022-10-29T13:23:24.169Z,3.33
2022-10-29T13:25:53.214Z,3.67
2022-10-29T13:28:20.147Z,4.13
2022-10-29T13:30:59.182Z,3.60
2022-10-29T13:33:26.213Z,3.40
2022-10-29T13:35:53.206Z,3.17
2022-10-29T13:38:52.142Z,4.80
2022-10-29T13:41:48.668Z,3.75
2022-10-29T13:44:24.381Z,5.65
2022-10-29T13:47:01.017Z,3.90
2022-10-29T13:49:34.680Z,4.60
2022-10-29T13:52:06.376Z,3.85
2022-10-29T13:54:43.600Z,5.80
2022-10-29T13:57:33.395Z,4.60
2022-10-29T14:00:07.337Z,4.10
2022-10-29T14:02:45.163Z,4.13
2022-10-29T14:05:14.826Z,4.00
2022-10-29T14:07:57.294Z,3.80
2022-10-29T14:13:24.671Z,5.03
2022-10-29T14:16:08.526Z,4.30
2022-10-29T14:18:40.815Z,3.53
2022-10-29T14:21:28.681Z,3.75
2022-10-29T14:23:58.680Z,6.18
2022-10-29T14:26:27.267Z,4.05
2022-10-29T14:28:54.485Z,3.97
2022-10-29T14:31:26.052Z,3.58
2022-10-29T14:34:01.048Z,4.22
2022-10-29T14:36:46.926Z,2.97
2022-10-29T14:39:37.089Z,3.65
2022-10-29T14:42:23.571Z,4.07
2022-10-29T14:44:54.308Z,3.60
2022-10-29T14:47:32.366Z,3.47
2022-10-29T14:50:04.946Z,4.95
2022-10-29T14:52:37.931Z,4.15
2022-10-29T14:55:22.721Z,3.20
2022-10-29T14:58:05.104Z,4.18
2022-10-29T15:00:36.823Z,3.58
2022-10-29T15:03:08.534Z,3.47
2022-10-29T15:05:37.086Z,3.78
2022-10-29T15:08:09.867Z,3.70
2022-10-29T15:10:47.238Z,4.55
2022-10-29T15:13:22.508Z,3.88
2022-10-29T15:16:05.269Z,4.53
2022-10-29T15:21:00.669Z,4.32
2022-10-29T15:23:34.168Z,4.03
2022-10-29T15:26:08.748Z,4.00
2022-10-29T15:28:45.671Z,3.60
2022-10-29T15:31:21.575Z,4.60
2022-10-29T15:33:53.211Z,3.70
2022-10-29T15:36:20.813Z,3.77
2022-10-29T15:38:52.165Z,4.38
2022-10-29T15:41:20.348Z,3.95
2022-10-29T15:43:56.256Z,4.70
2022-10-29T15:46:24.541Z,4.82
2022-10-29T15:48:52.069Z,3.63
2022-10-29T15:51:23.350Z,3.92
2022-10-29T15:53:50.393Z,4.05
2022-10-29T15:56:17.479Z,4.65
2022-10-29T15:58:44.477Z,4.03
2022-10-29T16:01:13.706Z,4.13
2022-10-29T16:03:42.939Z,4.60
2022-10-29T16:06:29.595Z,4.03
2022-10-29T16:08:58.542Z,3.88
2022-10-29T16:11:26.887Z,4.10
2022-10-29T16:13:55.126Z,4.25
2022-10-29T16:16:24.924Z,4.63
2022-10-29T16:18:52.728Z,5.03
2022-10-29T16:21:22.675Z,4.90
2022-10-29T16:23:51.307Z,5.68
2022-10-29T16:26:25.076Z,3.72
2022-10-29T16:28:53.243Z,4.47
2022-10-29T16:31:23.775Z,5.22
2022-10-29T16:33:56.652Z,5.45
2022-10-29T16:36:24.332Z,5.65
2022-10-29T16:38:51.449Z,4.50
2022-10-29T16:41:20.244Z,4.82
2022-10-29T16:43:47.958Z,5.32
2022-10-29T16:46:15.324Z,5.72
2022-10-29T16:48:42.481Z,5.43
2022-10-29T16:51:09.577Z,6.00
2022-10-29T16:53:36.620Z,5.15
2022-10-29T16:56:03.996Z,5.75
2022-10-29T16:58:31.004Z,6.93
2022-10-29T17:01:05.709Z,6.45
2022-10-29T17:03:34.171Z,6.32
2022-10-29T17:06:06.417Z,5.65
2022-10-29T17:08:38.484Z,5.93
2022-10-29T17:11:09.855Z,5.47
2022-10-29T17:13:37.557Z,5.93
2022-10-29T17:16:09.176Z,6.38
2022-10-29T17:18:36.468Z,6.55
2022-10-29T17:21:03.925Z,6.45
2022-10-29T17:23:32.607Z,6.75
2022-10-29T17:26:01.294Z,5.25
2022-10-29T17:28:28.607Z,5.13
2022-10-29T17:30:55.711Z,5.50
2022-10-29T17:33:22.894Z,6.25
2022-10-29T17:35:50.069Z,5.97
2022-10-29T17:38:17.182Z,6.15
2022-10-29T17:40:46.040Z,5.78
2022-10-29T17:43:13.339Z,6.10
2022-10-29T17:45:41.778Z,5.60
2022-10-29T17:48:08.856Z,6.20
2022-10-29T17:50:36.114Z,5.97
2022-10-29T17:53:03.391Z,5.93
2022-10-29T17:55:30.547Z,5.78
2022-10-29T17:57:57.831Z,6.35
2022-10-29T18:00:25.505Z,5.95
2022-10-29T18:02:52.620Z,7.32
2022-10-29T18:05:19.716Z,6.15
2022-10-29T18:07:46.738Z,6.82
2022-10-29T18:10:13.786Z,6.20
2022-10-29T18:12:40.769Z,6.10
2022-10-29T18:15:08.421Z,5.63
2022-10-29T18:17:36.494Z,6.13
2022-10-29T18:20:03.872Z,5.50
2022-10-29T18:22:30.875Z,5.50
2022-10-29T18:24:58.417Z,6.32
2022-10-29T18:27:25.443Z,6.03
2022-10-29T18:29:52.460Z,5.72
2022-10-29T18:32:19.922Z,6.47
2022-10-29T18:34:46.985Z,5.53
2022-10-29T18:37:14.003Z,6.30
2022-10-29T18:39:40.983Z,5.97
2022-10-29T18:42:08.072Z,6.03
2022-10-29T18:44:35.490Z,6.53
2022-10-29T18:47:02.592Z,5.63
2022-10-29T18:49:29.685Z,7.10
2022-10-29T18:51:56.691Z,5.25
2022-10-29T18:54:24.889Z,7.32
2022-10-29T18:56:51.968Z,5.78
2022-10-29T18:59:18.918Z,5.30
2022-10-29T19:01:45.961Z,6.43
2022-10-29T19:04:14.752Z,4.90
2022-10-29T19:06:41.927Z,6.30
2022-10-29T19:09:10.916Z,6.93
2022-10-29T19:11:38.455Z,6.50
2022-10-29T19:14:07.878Z,5.68
2022-10-29T19:16:35.385Z,5.85
2022-10-29T19:19:07.814Z,5.40
2022-10-29T19:21:36.822Z,5.45
2022-10-29T19:24:05.481Z,5.90
2022-10-29T19:26:34.319Z,7.32
2022-10-29T19:29:02.866Z,7.68
2022-10-29T19:31:31.388Z,6.60
2022-10-29T19:34:00.652Z,5.78
2022-10-29T19:36:29.454Z,6.43
2022-10-29T19:38:56.728Z,6.57
2022-10-29T19:41:23.928Z,6.63
2022-10-29T19:43:51.100Z,6.47
2022-10-29T19:46:24.411Z,6.55
2022-10-29T19:48:53.264Z,9.02
2022-10-29T19:51:21.464Z,5.88
2022-10-29T19:53:51.274Z,5.97
2022-10-29T19:56:19.237Z,6.15
2022-10-29T19:58:46.796Z,6.70
2022-10-29T20:01:17.195Z,6.60
2022-10-29T20:03:45.243Z,6.65
2022-10-29T20:06:12.640Z,7.32
2022-10-29T20:08:39.832Z,6.38
2022-10-29T20:11:07.355Z,7.78
2022-10-29T20:13:34.808Z,8.98
2022-10-29T20:16:11.613Z,13.95
2022-10-29T20:18:38.608Z,9.98
2022-10-29T20:23:38.235Z,11.45
2022-10-29T20:26:06.892Z,10.95
2022-10-29T20:28:34.395Z,10.98
2022-10-29T20:31:12.819Z,9.27
2022-10-29T20:33:39.932Z,9.07
2022-10-29T20:36:07.144Z,8.60
2022-10-29T20:38:34.280Z,7.88
2022-10-29T20:41:01.292Z,9.05
2022-10-29T20:43:28.503Z,9.30
2022-10-29T20:46:00.272Z,8.05
2022-10-29T20:48:28.551Z,9.27
2022-10-29T20:50:55.710Z,8.73
2022-10-29T20:53:22.700Z,9.27
2022-10-29T20:55:52.469Z,9.18
2022-10-29T20:58:20.309Z,10.00
2022-10-29T21:00:47.861Z,7.88
2022-10-29T21:03:15.960Z,8.90
2022-10-29T21:05:43.108Z,11.32
2022-10-29T21:08:10.399Z,7.97
2022-10-29T21:10:37.441Z,9.35
2022-10-29T21:13:04.818Z,9.40
2022-10-29T21:15:35.812Z,10.18
2022-10-29T21:18:02.926Z,10.07
2022-10-29T21:20:33.927Z,10.70
2022-10-29T21:23:01.100Z,9.80
2022-10-29T21:25:28.121Z,9.77
2022-10-29T21:27:55.807Z,10.02
2022-10-29T21:30:23.200Z,9.32
2022-10-29T21:32:50.254Z,9.45
2022-10-29T21:35:17.419Z,9.10
2022-10-29T21:37:44.912Z,9.10
2022-10-29T21:40:12.604Z,9.15
2022-10-29T21:42:40.058Z,9.93
2022-10-29T21:45:07.408Z,8.05
2022-10-29T21:47:34.442Z,7.72
2022-10-29T21:50:01.489Z,10.65
2022-10-29T21:52:28.471Z,8.30
2022-10-29T21:54:55.494Z,8.15
2022-10-29T21:57:22.546Z,7.80
2022-10-29T21:59:50.808Z,11.57
2022-10-29T22:02:17.888Z,9.60
2022-10-29T22:04:45.063Z,6.72
2022-10-29T22:07:12.099Z,9.30
2022-10-29T22:09:39.073Z,10.35
2022-10-29T22:12:06.388Z,8.57
2022-10-29T22:14:33.478Z,10.15
2022-10-29T22:17:00.482Z,10.57
2022-10-29T22:19:27.587Z,9.80
2022-10-29T22:21:55.759Z,10.82
2022-10-29T22:24:22.751Z,10.65
2022-10-29T22:26:49.860Z,11.25
2022-10-29T22:29:16.850Z,10.80
2022-10-29T22:31:44.039Z,12.02
2022-10-29T22:34:11.024Z,11.95
2022-10-29T22:36:38.053Z,11.10
2022-10-29T22:39:05.287Z,11.68
2022-10-29T22:41:32.303Z,12.73
2022-10-29T22:43:59.452Z,11.07
2022-10-29T22:46:27.943Z,10.02
2022-10-29T22:48:55.142Z,10.43
2022-10-29T22:51:24.798Z,11.35
2022-10-29T22:53:53.047Z,11.38
2022-10-29T22:56:40.755Z,11.60
2022-10-29T22:59:07.800Z,11.00
2022-10-29T23:01:40.270Z,12.85
2022-10-29T23:04:11.269Z,9.93
2022-10-29T23:06:38.236Z,10.43
2022-10-29T23:09:05.346Z,10.63
2022-10-29T23:11:34.867Z,10.43
2022-10-29T23:14:02.804Z,11.68
2022-10-29T23:16:31.811Z,10.80
2022-10-29T23:19:01.646Z,12.38
2022-10-29T23:21:29.428Z,11.38
2022-10-29T23:23:57.152Z,11.07
2022-10-29T23:26:25.203Z,11.30
2022-10-29T23:28:52.586Z,10.98
2022-10-29T23:31:22.090Z,11.65
2022-10-29T23:33:51.471Z,10.43
2022-10-29T23:36:20.723Z,11.20
2022-10-29T23:38:47.805Z,11.32
2022-10-29T23:41:14.811Z,10.27
2022-10-29T23:43:41.883Z,10.75
2022-10-29T23:46:08.970Z,10.18
2022-10-29T23:48:35.930Z,12.90
2022-10-29T23:51:03.016Z,9.85
2022-10-29T23:53:30.004Z,11.70
2022-10-29T23:55:57.079Z,11.38
2022-10-29T23:58:24.371Z,14.77
